createdAt,value
2018-06-14T00:00:32.565Z,12.95
2018-06-14T00:01:32.565Z,12.92
2018-06-14T00:02:32.566Z,12.95
2018-06-14T00:03:32.571Z,13.02
2018-06-14T00:04:32.567Z,12.92
2018-06-14T00:05:32.569Z,12.95
2018-06-14T00:06:32.570Z,12.93
2018-06-14T00:07:32.569Z,12.85
2018-06-14T00:08:32.578Z,12.88
2018-06-14T00:09:32.571Z,12.92
2018-06-14T00:10:32.572Z,12.81
2018-06-14T00:11:32.573Z,12.77
2018-06-14T00:12:32.570Z,12.79
2018-06-14T00:13:32.576Z,12.82
2018-06-14T00:14:32.573Z,12.81
2018-06-14T00:15:32.574Z,12.85
2018-06-14T00:16:32.575Z,12.75
2018-06-14T00:17:32.576Z,12.82
2018-06-14T00:18:32.571Z,12.69
2018-06-14T00:19:32.576Z,12.75
2018-06-14T00:20:32.574Z,12.79
2018-06-14T00:21:32.577Z,12.79
2018-06-14T00:22:32.574Z,12.82
2018-06-14T00:23:32.576Z,12.78
2018-06-14T00:24:32.578Z,12.82
2018-06-14T00:25:32.575Z,12.77
2018-06-14T00:26:32.638Z,12.64
2018-06-14T00:27:32.577Z,12.69
2018-06-14T00:28:32.584Z,12.67
2018-06-14T00:29:32.578Z,12.64
2018-06-14T00:30:34.079Z,12.62
2018-06-14T00:31:32.582Z,12.59
2018-06-14T00:32:32.579Z,12.63
2018-06-14T00:33:32.579Z,12.59
2018-06-14T00:34:32.578Z,12.62
2018-06-14T00:35:32.604Z,12.63
2018-06-14T00:36:32.582Z,12.59
2018-06-14T00:37:32.574Z,12.62
2018-06-14T00:38:32.577Z,12.57
2018-06-14T00:39:32.580Z,12.51
2018-06-14T00:40:32.579Z,12.59
2018-06-14T00:41:32.598Z,12.46
2018-06-14T00:42:32.580Z,12.46
2018-06-14T00:43:32.582Z,12.56
2018-06-14T00:44:32.579Z,12.59
2018-06-14T00:45:32.584Z,12.59
2018-06-14T00:46:32.586Z,12.46
2018-06-14T00:47:32.582Z,12.46
2018-06-14T00:48:32.578Z,12.46
2018-06-14T00:49:32.603Z,12.45
2018-06-14T00:50:32.592Z,12.48
2018-06-14T00:51:32.579Z,12.49
2018-06-14T00:52:32.579Z,12.46
2018-06-14T00:53:32.615Z,12.46
2018-06-14T00:54:32.582Z,12.46
2018-06-14T00:55:32.590Z,12.44
2018-06-14T00:56:32.580Z,12.46
2018-06-14T00:57:32.584Z,12.49
2018-06-14T00:58:32.577Z,12.44
2018-06-14T00:59:32.583Z,12.51
2018-06-14T01:00:32.576Z,12.44
2018-06-14T01:01:32.582Z,12.45
2018-06-14T01:02:32.580Z,12.49
2018-06-14T01:03:32.581Z,12.46
2018-06-14T01:04:32.578Z,12.49
2018-06-14T01:05:32.582Z,12.48
2018-06-14T01:06:32.581Z,12.45
2018-06-14T01:07:32.582Z,12.44
2018-06-14T01:08:32.586Z,12.42
2018-06-14T01:09:32.580Z,12.51
2018-06-14T01:10:32.580Z,12.51
2018-06-14T01:11:32.609Z,12.33
2018-06-14T01:12:32.581Z,12.41
2018-06-14T01:13:32.580Z,12.31
2018-06-14T01:14:32.581Z,12.37
2018-06-14T01:15:32.581Z,12.37
2018-06-14T01:16:32.629Z,12.38
2018-06-14T01:17:32.582Z,12.33
2018-06-14T01:18:32.581Z,12.41
2018-06-14T01:19:32.582Z,12.34
2018-06-14T01:20:32.578Z,12.33
2018-06-14T01:21:32.581Z,12.39
2018-06-14T01:22:32.585Z,12.39
2018-06-14T01:23:32.578Z,12.39
2018-06-14T01:24:32.583Z,12.42
2018-06-14T01:25:32.581Z,12.39
2018-06-14T01:26:32.582Z,12.33
2018-06-14T01:27:32.579Z,12.39
2018-06-14T01:28:32.577Z,12.37
2018-06-14T01:29:32.580Z,12.39
2018-06-14T01:30:32.581Z,12.51
2018-06-14T01:31:32.608Z,12.37
2018-06-14T01:32:32.577Z,12.33
2018-06-14T01:33:32.583Z,12.45
2018-06-14T01:34:32.583Z,12.38
2018-06-14T01:35:32.584Z,12.38
2018-06-14T01:36:32.576Z,12.39
2018-06-14T01:37:32.577Z,12.34
2018-06-14T01:38:32.585Z,12.31
2018-06-14T01:39:32.613Z,12.39
2018-06-14T01:40:32.605Z,12.27
2018-06-14T01:41:32.579Z,12.37
2018-06-14T01:42:32.578Z,12.26
2018-06-14T01:43:32.577Z,12.33
2018-06-14T01:44:32.577Z,12.33
2018-06-14T01:45:32.575Z,12.24
2018-06-14T01:46:32.578Z,12.15
2018-06-14T01:47:32.582Z,12.16
2018-06-14T01:48:32.574Z,12.26
2018-06-14T01:49:32.580Z,12.26
2018-06-14T01:50:32.585Z,12.26
2018-06-14T01:51:32.579Z,12.24
2018-06-14T01:52:32.578Z,12.23
2018-06-14T01:53:32.577Z,12.20
2018-06-14T01:54:32.610Z,12.20
2018-06-14T01:55:32.581Z,12.16
2018-06-14T01:56:32.577Z,12.21
2018-06-14T01:57:32.574Z,12.16
2018-06-14T01:58:32.582Z,12.23
2018-06-14T01:59:32.576Z,12.26
2018-06-14T02:00:32.572Z,12.26
2018-06-14T02:01:32.575Z,12.20
2018-06-14T02:02:32.578Z,12.24
2018-06-14T02:03:32.574Z,12.27
2018-06-14T02:04:32.575Z,12.26
2018-06-14T02:05:32.576Z,12.26
2018-06-14T02:06:32.575Z,12.23
2018-06-14T02:07:32.573Z,12.30
2018-06-14T02:08:32.601Z,12.26
2018-06-14T02:09:32.574Z,12.26
2018-06-14T02:10:32.573Z,12.26
2018-06-14T02:11:32.572Z,12.16
2018-06-14T02:12:32.571Z,12.24
2018-06-14T02:13:32.604Z,12.21
2018-06-14T02:14:32.574Z,12.20
2018-06-14T02:15:32.574Z,12.19
2018-06-14T02:16:32.574Z,12.21
2018-06-14T02:17:32.574Z,12.30
2018-06-14T02:18:32.574Z,12.26
2018-06-14T02:19:32.576Z,12.23
2018-06-14T02:20:32.572Z,12.26
2018-06-14T02:21:32.575Z,12.21
2018-06-14T02:22:32.573Z,12.24
2018-06-14T02:23:32.573Z,12.29
2018-06-14T02:24:32.578Z,12.21
2018-06-14T02:25:32.574Z,12.24
2018-06-14T02:26:32.575Z,12.29
2018-06-14T02:27:32.574Z,12.24
2018-06-14T02:28:32.568Z,12.26
2018-06-14T02:29:32.572Z,12.21
2018-06-14T02:30:32.570Z,12.15
2018-06-14T02:31:32.568Z,12.24
2018-06-14T02:32:32.567Z,12.23
2018-06-14T02:33:32.574Z,12.26
2018-06-14T02:34:32.570Z,12.41
2018-06-14T02:35:32.576Z,12.37
2018-06-14T02:36:32.572Z,12.38
2018-06-14T02:37:32.570Z,12.37
2018-06-14T02:38:32.570Z,12.33
2018-06-14T02:39:32.569Z,12.38
2018-06-14T02:40:32.572Z,12.39
2018-06-14T02:41:32.569Z,12.31
2018-06-14T02:42:32.621Z,12.27
2018-06-14T02:43:32.566Z,12.26
2018-06-14T02:44:32.570Z,12.29
2018-06-14T02:45:32.570Z,12.34
2018-06-14T02:46:32.578Z,12.27
2018-06-14T02:47:32.569Z,12.23
2018-06-14T02:48:32.575Z,12.21
2018-06-14T02:49:32.604Z,12.21
2018-06-14T02:50:32.566Z,12.23
2018-06-14T02:51:32.571Z,12.33
2018-06-14T02:52:32.642Z,12.26
2018-06-14T02:53:32.568Z,12.27
2018-06-14T02:54:32.572Z,12.19
2018-06-14T02:55:32.571Z,12.21
2018-06-14T02:56:32.574Z,12.21
2018-06-14T02:57:32.569Z,12.26
2018-06-14T02:58:32.568Z,12.20
2018-06-14T02:59:32.570Z,12.20
2018-06-14T03:00:32.564Z,12.29
2018-06-14T03:01:32.574Z,12.23
2018-06-14T03:02:32.574Z,12.29
2018-06-14T03:03:32.566Z,12.19
2018-06-14T03:04:32.566Z,12.26
2018-06-14T03:05:32.591Z,12.23
2018-06-14T03:06:32.567Z,12.20
2018-06-14T03:07:32.573Z,12.20
2018-06-14T03:08:32.563Z,12.21
2018-06-14T03:09:32.565Z,12.21
2018-06-14T03:10:32.568Z,12.26
2018-06-14T03:11:32.579Z,12.24
2018-06-14T03:12:32.568Z,12.26
2018-06-14T03:13:32.594Z,12.24
2018-06-14T03:14:32.566Z,12.19
2018-06-14T03:15:32.565Z,12.30
2018-06-14T03:16:32.566Z,12.24
2018-06-14T03:17:32.564Z,12.30
2018-06-14T03:18:32.565Z,12.27
2018-06-14T03:19:32.576Z,12.23
2018-06-14T03:20:32.566Z,12.24
2018-06-14T03:21:32.565Z,12.26
2018-06-14T03:22:32.566Z,12.31
2018-06-14T03:23:32.568Z,12.23
2018-06-14T03:24:32.590Z,12.24
2018-06-14T03:25:32.560Z,12.31
2018-06-14T03:26:32.562Z,12.34
2018-06-14T03:27:32.590Z,12.38
2018-06-14T03:28:32.562Z,12.31
2018-06-14T03:29:32.560Z,12.33
2018-06-14T03:30:32.564Z,12.33
2018-06-14T03:31:32.564Z,12.39
2018-06-14T03:32:32.558Z,12.33
2018-06-14T03:33:32.562Z,12.33
2018-06-14T03:34:32.563Z,12.34
2018-06-14T03:35:32.583Z,12.34
2018-06-14T03:36:32.560Z,12.38
2018-06-14T03:37:32.568Z,12.37
2018-06-14T03:38:32.561Z,12.37
2018-06-14T03:39:32.559Z,12.37
2018-06-14T03:40:32.560Z,12.31
2018-06-14T03:41:32.592Z,12.33
2018-06-14T03:42:32.560Z,12.29
2018-06-14T03:43:32.561Z,12.38
2018-06-14T03:44:32.559Z,12.37
2018-06-14T03:45:32.561Z,12.37
2018-06-14T03:46:32.578Z,12.37
2018-06-14T03:47:32.595Z,12.23
2018-06-14T03:48:32.558Z,12.20
2018-06-14T03:49:32.562Z,12.19
2018-06-14T03:50:32.567Z,12.19
2018-06-14T03:51:32.604Z,12.27
2018-06-14T03:52:32.558Z,12.20
2018-06-14T03:53:32.560Z,12.23
2018-06-14T03:54:32.563Z,12.20
2018-06-14T03:55:32.560Z,12.08
2018-06-14T03:56:32.555Z,12.20
2018-06-14T03:57:32.558Z,12.30
2018-06-14T03:58:32.557Z,12.23
2018-06-14T03:59:32.557Z,12.30
2018-06-14T04:00:32.561Z,12.38
2018-06-14T04:01:32.556Z,12.29
2018-06-14T04:02:32.554Z,12.38
2018-06-14T04:03:32.559Z,12.34
2018-06-14T04:04:32.622Z,12.45
2018-06-14T04:05:32.556Z,12.45
2018-06-14T04:06:32.552Z,12.46
2018-06-14T04:07:32.558Z,12.52
2018-06-14T04:08:32.559Z,12.46
2018-06-14T04:09:32.560Z,12.46
2018-06-14T04:10:32.560Z,12.45
2018-06-14T04:11:32.557Z,12.46
2018-06-14T04:12:32.554Z,12.48
2018-06-14T04:13:32.553Z,12.48
2018-06-14T04:14:32.560Z,12.51
2018-06-14T04:15:32.552Z,12.44
2018-06-14T04:16:32.555Z,12.46
2018-06-14T04:17:32.574Z,12.48
2018-06-14T04:18:32.566Z,12.37
2018-06-14T04:19:32.552Z,12.46
2018-06-14T04:20:32.565Z,12.44
2018-06-14T04:21:32.552Z,12.44
2018-06-14T04:22:32.551Z,12.38
2018-06-14T04:23:32.556Z,12.45
2018-06-14T04:24:32.562Z,12.46
2018-06-14T04:25:32.552Z,12.45
2018-06-14T04:26:32.555Z,12.49
2018-06-14T04:27:32.576Z,12.46
2018-06-14T04:28:32.548Z,12.46
2018-06-14T04:29:32.549Z,12.59
2018-06-14T04:30:32.549Z,12.63
2018-06-14T04:31:32.552Z,12.57
2018-06-14T04:32:32.550Z,12.66
2018-06-14T04:33:32.553Z,12.54
2018-06-14T04:34:32.555Z,12.62
2018-06-14T04:35:32.557Z,12.64
2018-06-14T04:36:32.554Z,12.60
2018-06-14T04:37:32.642Z,12.60
2018-06-14T04:38:32.560Z,12.59
2018-06-14T04:39:32.560Z,12.56
2018-06-14T04:40:32.555Z,12.54
2018-06-14T04:41:32.555Z,12.59
2018-06-14T04:42:32.556Z,12.57
2018-06-14T04:43:32.554Z,12.52
2018-06-14T04:44:32.554Z,12.57
2018-06-14T04:45:32.584Z,12.64
2018-06-14T04:46:32.556Z,12.63
2018-06-14T04:47:32.583Z,12.62
2018-06-14T04:48:32.553Z,12.70
2018-06-14T04:49:32.553Z,12.78
2018-06-14T04:50:32.555Z,12.81
2018-06-14T04:51:32.558Z,12.81
2018-06-14T04:52:32.553Z,12.77
2018-06-14T04:53:32.614Z,12.77
2018-06-14T04:54:32.560Z,12.78
2018-06-14T04:55:32.556Z,12.81
2018-06-14T04:56:32.552Z,12.78
2018-06-14T04:57:32.563Z,12.84
2018-06-14T04:58:32.578Z,12.89
2018-06-14T04:59:32.590Z,12.89
2018-06-14T05:00:32.554Z,12.92
2018-06-14T05:01:32.554Z,12.87
2018-06-14T05:02:32.582Z,12.93
2018-06-14T05:03:32.560Z,12.93
2018-06-14T05:04:32.552Z,12.92
2018-06-14T05:05:32.551Z,12.92
2018-06-14T05:06:32.553Z,12.93
2018-06-14T05:07:32.555Z,12.97
2018-06-14T05:08:32.553Z,12.87
2018-06-14T05:09:32.554Z,12.87
2018-06-14T05:10:32.556Z,12.95
2018-06-14T05:11:32.555Z,12.92
2018-06-14T05:12:32.561Z,12.96
2018-06-14T05:13:32.559Z,12.93
2018-06-14T05:14:32.557Z,12.93
2018-06-14T05:15:32.556Z,12.95
2018-06-14T05:16:32.557Z,12.88
2018-06-14T05:17:32.589Z,12.89
2018-06-14T05:18:32.588Z,12.92
2018-06-14T05:19:32.586Z,12.93
2018-06-14T05:20:32.566Z,13.03
2018-06-14T05:21:32.557Z,12.93
2018-06-14T05:22:32.557Z,12.97
2018-06-14T05:23:32.611Z,12.92
2018-06-14T05:24:32.558Z,12.95
2018-06-14T05:25:32.558Z,12.95
2018-06-14T05:26:32.567Z,13.00
2018-06-14T05:27:32.559Z,13.00
2018-06-14T05:28:32.564Z,12.97
2018-06-14T05:29:32.560Z,13.00
2018-06-14T05:30:32.586Z,13.06
2018-06-14T05:31:32.574Z,12.99
2018-06-14T05:32:32.567Z,12.99
2018-06-14T05:33:32.560Z,13.02
2018-06-14T05:34:32.562Z,13.02
2018-06-14T05:35:32.565Z,13.06
2018-06-14T05:36:32.565Z,13.12
2018-06-14T05:37:32.562Z,13.11
2018-06-14T05:38:32.564Z,13.18
2018-06-14T05:39:32.564Z,13.18
2018-06-14T05:40:32.695Z,13.21
2018-06-14T05:41:32.581Z,13.21
2018-06-14T05:42:32.667Z,13.25
2018-06-14T05:43:32.566Z,13.20
2018-06-14T05:44:32.607Z,13.21
2018-06-14T05:45:32.564Z,13.24
2018-06-14T05:46:32.566Z,13.24
2018-06-14T05:47:32.566Z,13.15
2018-06-14T05:48:32.577Z,13.17
2018-06-14T05:49:32.567Z,13.21
2018-06-14T05:50:32.595Z,13.12
2018-06-14T05:51:32.575Z,13.11
2018-06-14T05:52:32.567Z,13.09
2018-06-14T05:53:32.568Z,13.15
2018-06-14T05:54:32.593Z,13.12
2018-06-14T05:55:32.572Z,13.11
2018-06-14T05:56:32.573Z,13.14
2018-06-14T05:57:32.569Z,13.17
2018-06-14T05:58:32.577Z,13.24
2018-06-14T05:59:32.576Z,13.27
2018-06-14T06:00:32.570Z,13.32
2018-06-14T06:01:32.596Z,13.43
2018-06-14T06:02:32.599Z,13.47
2018-06-14T06:03:32.572Z,13.37
2018-06-14T06:04:32.578Z,13.40
2018-06-14T06:05:32.574Z,13.43
2018-06-14T06:06:32.591Z,13.58
2018-06-14T06:07:32.576Z,13.41
2018-06-14T06:08:32.576Z,13.54
2018-06-14T06:09:32.575Z,13.59
2018-06-14T06:10:32.576Z,13.69
2018-06-14T06:11:32.580Z,13.58
2018-06-14T06:12:32.580Z,13.59
2018-06-14T06:13:32.582Z,13.61
2018-06-14T06:14:32.584Z,13.67
2018-06-14T06:15:32.596Z,13.79
2018-06-14T06:16:32.578Z,13.84
2018-06-14T06:17:32.583Z,13.92
2018-06-14T06:18:32.583Z,13.96
2018-06-14T06:19:32.587Z,13.99
2018-06-14T06:20:32.590Z,13.95
2018-06-14T06:21:32.616Z,13.98
2018-06-14T06:22:32.586Z,14.13
2018-06-14T06:23:32.629Z,14.13
2018-06-14T06:24:32.588Z,14.14
2018-06-14T06:25:32.591Z,14.27
2018-06-14T06:26:32.592Z,14.20
2018-06-14T06:27:32.593Z,14.24
2018-06-14T06:28:32.612Z,14.37
2018-06-14T06:29:32.591Z,14.34
2018-06-14T06:30:32.592Z,14.34
2018-06-14T06:31:32.600Z,14.44
2018-06-14T06:32:32.605Z,14.47
2018-06-14T06:33:32.602Z,14.47
2018-06-14T06:34:32.599Z,14.54
2018-06-14T06:35:32.601Z,14.53
2018-06-14T06:36:32.603Z,14.53
2018-06-14T06:37:32.609Z,14.56
2018-06-14T06:38:32.630Z,14.54
2018-06-14T06:39:32.611Z,14.56
2018-06-14T06:40:32.609Z,14.64
2018-06-14T06:41:32.611Z,14.67
2018-06-14T06:42:32.609Z,14.81
2018-06-14T06:43:32.614Z,14.72
2018-06-14T06:44:32.611Z,14.75
2018-06-14T06:45:32.616Z,14.88
2018-06-14T06:46:32.614Z,14.84
2018-06-14T06:47:32.618Z,14.86
2018-06-14T06:48:32.622Z,14.86
2018-06-14T06:49:32.622Z,14.94
2018-06-14T06:50:32.619Z,15.05
2018-06-14T06:51:32.624Z,15.06
2018-06-14T06:52:32.622Z,15.05
2018-06-14T06:53:32.625Z,15.08
2018-06-14T06:54:32.629Z,15.02
2018-06-14T06:55:32.630Z,15.19
2018-06-14T06:56:32.630Z,15.27
2018-06-14T06:57:32.633Z,15.39
2018-06-14T06:58:32.645Z,15.33
2018-06-14T06:59:32.638Z,15.38
2018-06-14T07:00:32.655Z,15.33
2018-06-14T07:01:32.641Z,15.23
2018-06-14T07:02:32.649Z,15.11
2018-06-14T07:03:32.645Z,15.02
2018-06-14T07:04:32.648Z,15.01
2018-06-14T07:05:32.647Z,14.98
2018-06-14T07:06:32.738Z,15.08
2018-06-14T07:07:32.651Z,15.09
2018-06-14T07:08:32.658Z,15.09
2018-06-14T07:09:32.660Z,15.13
2018-06-14T07:10:32.659Z,15.19
2018-06-14T07:11:32.668Z,15.30
2018-06-14T07:12:32.686Z,15.31
2018-06-14T07:13:32.668Z,15.45
2018-06-14T07:14:32.668Z,15.54
2018-06-14T07:15:32.669Z,15.68
2018-06-14T07:16:32.670Z,15.75
2018-06-14T07:17:32.677Z,15.81
2018-06-14T07:18:32.703Z,15.67
2018-06-14T07:19:32.677Z,15.74
2018-06-14T07:20:32.679Z,15.64
2018-06-14T07:21:32.738Z,15.82
2018-06-14T07:22:32.685Z,15.79
2018-06-14T07:23:32.692Z,15.67
2018-06-14T07:24:32.701Z,15.72
2018-06-14T07:25:32.692Z,15.67
2018-06-14T07:26:32.695Z,15.72
2018-06-14T07:27:32.697Z,15.82
2018-06-14T07:28:32.702Z,15.89
2018-06-14T07:29:32.701Z,15.86
2018-06-14T07:30:32.707Z,16.00
2018-06-14T07:31:32.769Z,16.18
2018-06-14T07:32:32.710Z,16.16
2018-06-14T07:33:32.714Z,16.09
2018-06-14T07:34:32.719Z,16.25
2018-06-14T07:35:32.720Z,16.33
2018-06-14T07:36:32.722Z,16.52
2018-06-14T07:37:32.726Z,16.48
2018-06-14T07:38:32.725Z,16.41
2018-06-14T07:39:32.728Z,16.52
2018-06-14T07:40:32.740Z,16.41
2018-06-14T07:41:32.740Z,16.45
2018-06-14T07:42:32.738Z,16.59
2018-06-14T07:43:32.746Z,16.80
2018-06-14T07:44:32.742Z,17.06
2018-06-14T07:45:32.778Z,17.23
2018-06-14T07:46:32.758Z,17.41
2018-06-14T07:47:32.758Z,17.48
2018-06-14T07:48:32.758Z,17.57
2018-06-14T07:49:32.772Z,17.43
2018-06-14T07:50:32.779Z,17.47
2018-06-14T07:51:32.771Z,17.64
2018-06-14T07:52:32.777Z,18.15
2018-06-14T07:53:32.788Z,18.44
2018-06-14T07:54:32.780Z,18.92
2018-06-14T07:55:32.783Z,19.32
2018-06-14T07:56:32.802Z,19.51
2018-06-14T07:57:32.792Z,19.24
2018-06-14T07:58:32.798Z,19.46
2018-06-14T07:59:32.827Z,19.47
2018-06-14T08:00:32.804Z,19.20
2018-06-14T08:01:32.840Z,19.11
2018-06-14T08:02:32.821Z,18.99
2018-06-14T08:03:32.821Z,19.05
2018-06-14T08:04:32.833Z,18.90
2018-06-14T08:05:32.832Z,18.94
2018-06-14T08:06:32.841Z,18.95
2018-06-14T08:07:32.843Z,19.02
2018-06-14T08:08:32.851Z,18.91
2018-06-14T08:09:32.855Z,18.76
2018-06-14T08:10:32.859Z,17.84
2018-06-14T08:11:32.864Z,17.78
2018-06-14T08:12:32.879Z,18.07
2018-06-14T08:13:32.881Z,18.65
2018-06-14T08:14:32.886Z,19.13
2018-06-14T08:15:32.884Z,19.13
2018-06-14T08:16:32.895Z,19.08
2018-06-14T08:17:32.897Z,19.01
2018-06-14T08:18:32.906Z,19.17
2018-06-14T08:19:32.910Z,19.20
2018-06-14T08:20:32.917Z,19.23
2018-06-14T08:21:32.920Z,19.25
2018-06-14T08:22:32.926Z,18.80
2018-06-14T08:23:32.932Z,19.11
2018-06-14T08:24:32.938Z,18.80
2018-06-14T08:25:32.975Z,18.68
2018-06-14T08:26:32.948Z,18.42
2018-06-14T08:27:32.952Z,18.61
2018-06-14T08:28:32.968Z,18.68
2018-06-14T08:29:32.967Z,18.73
2018-06-14T08:30:32.980Z,19.11
2018-06-14T08:31:32.986Z,19.21
2018-06-14T08:32:32.995Z,19.39
2018-06-14T08:33:33.021Z,19.15
2018-06-14T08:34:33.010Z,19.23
2018-06-14T08:35:33.004Z,19.40
2018-06-14T08:36:33.009Z,19.61
2018-06-14T08:37:33.015Z,19.75
2018-06-14T08:38:33.021Z,19.79
2018-06-14T08:39:33.030Z,19.60
2018-06-14T08:40:33.037Z,19.29
2018-06-14T08:41:33.041Z,18.80
2018-06-14T08:42:33.054Z,18.43
2018-06-14T08:43:33.054Z,18.84
2018-06-14T08:44:33.085Z,19.31
2018-06-14T08:45:33.092Z,19.70
2018-06-14T08:46:33.077Z,20.00
2018-06-14T08:47:33.082Z,19.93
2018-06-14T08:48:33.096Z,19.87
2018-06-14T08:49:33.097Z,20.06
2018-06-14T08:50:33.102Z,20.30
2018-06-14T08:51:33.114Z,20.68
2018-06-14T08:52:34.660Z,20.90
2018-06-14T08:53:33.123Z,21.04
2018-06-14T08:54:33.142Z,21.09
2018-06-14T08:55:34.662Z,21.30
2018-06-14T08:56:33.147Z,21.02
2018-06-14T08:57:33.160Z,20.76
2018-06-14T08:58:33.165Z,20.79
2018-06-14T08:59:33.172Z,20.65
2018-06-14T09:00:33.179Z,20.38
2018-06-14T09:01:33.186Z,20.46
2018-06-14T09:02:33.201Z,20.41
2018-06-14T09:03:33.203Z,20.56
2018-06-14T09:04:33.239Z,20.49
2018-06-14T09:05:33.218Z,20.47
2018-06-14T09:06:33.224Z,20.79
2018-06-14T09:07:33.232Z,20.81
2018-06-14T09:08:33.266Z,20.68
2018-06-14T09:09:33.247Z,20.49
2018-06-14T09:10:33.253Z,20.30
2018-06-14T09:11:33.259Z,20.31
2018-06-14T09:12:33.280Z,20.23
2018-06-14T09:13:33.273Z,20.38
2018-06-14T09:14:33.282Z,20.62
2018-06-14T09:15:33.298Z,20.53
2018-06-14T09:16:33.289Z,20.68
2018-06-14T09:17:33.302Z,20.81
2018-06-14T09:18:33.319Z,20.91
2018-06-14T09:19:33.315Z,21.05
2018-06-14T09:20:33.316Z,21.27
2018-06-14T09:21:33.355Z,21.34
2018-06-14T09:22:33.370Z,21.61
2018-06-14T09:23:33.347Z,21.44
2018-06-14T09:24:33.345Z,21.42
2018-06-14T09:25:33.353Z,21.16
2018-06-14T09:26:33.357Z,21.09
2018-06-14T09:27:33.372Z,21.16
2018-06-14T09:28:33.369Z,21.08
2018-06-14T09:29:33.374Z,21.19
2018-06-14T09:30:33.380Z,20.95
2018-06-14T09:31:33.393Z,20.49
2018-06-14T09:32:33.398Z,20.69
2018-06-14T09:33:33.403Z,20.76
2018-06-14T09:34:33.409Z,21.01
2018-06-14T09:35:33.415Z,20.62
2018-06-14T09:36:33.421Z,20.99
2018-06-14T09:37:33.426Z,20.79
2018-06-14T09:38:33.433Z,20.71
2018-06-14T09:39:33.470Z,20.25
2018-06-14T09:40:33.446Z,20.30
2018-06-14T09:41:33.450Z,20.39
2018-06-14T09:42:33.491Z,20.80
2018-06-14T09:43:33.460Z,21.01
2018-06-14T09:44:33.464Z,21.34
2018-06-14T09:45:33.497Z,21.39
2018-06-14T09:46:33.481Z,21.41
2018-06-14T09:47:33.488Z,21.67
2018-06-14T09:48:33.490Z,21.83
2018-06-14T09:49:33.494Z,22.02
2018-06-14T09:50:33.524Z,22.07
2018-06-14T09:51:33.534Z,22.29
2018-06-14T09:52:33.511Z,22.23
2018-06-14T09:53:33.517Z,22.22
2018-06-14T09:54:33.543Z,22.16
2018-06-14T09:55:33.533Z,21.69
2018-06-14T09:56:33.546Z,21.16
2018-06-14T09:57:33.543Z,21.23
2018-06-14T09:58:33.548Z,21.35
2018-06-14T09:59:33.556Z,21.64
2018-06-14T10:00:33.565Z,21.81
2018-06-14T10:01:33.569Z,21.61
2018-06-14T10:02:33.568Z,21.78
2018-06-14T10:03:33.574Z,21.81
2018-06-14T10:04:33.584Z,21.91
2018-06-14T10:05:33.592Z,22.10
2018-06-14T10:06:33.595Z,22.19
2018-06-14T10:07:33.647Z,22.28
2018-06-14T10:08:33.604Z,21.97
2018-06-14T10:09:33.611Z,22.02
2018-06-14T10:10:33.621Z,22.34
2018-06-14T10:11:33.641Z,22.29
2018-06-14T10:12:33.632Z,22.56
2018-06-14T10:13:33.638Z,22.67
2018-06-14T10:14:33.676Z,22.28
2018-06-14T10:15:33.655Z,21.88
2018-06-14T10:16:33.654Z,21.90
2018-06-14T10:17:33.662Z,22.04
2018-06-14T10:18:33.690Z,22.09
2018-06-14T10:19:33.677Z,21.83
2018-06-14T10:20:33.679Z,21.85
2018-06-14T10:21:33.685Z,21.36
2018-06-14T10:22:33.692Z,21.76
2018-06-14T10:23:33.695Z,22.06
2018-06-14T10:24:33.703Z,22.02
2018-06-14T10:25:33.716Z,21.71
2018-06-14T10:26:33.721Z,21.69
2018-06-14T10:27:33.724Z,21.78
2018-06-14T10:28:33.731Z,21.76
2018-06-14T10:29:33.736Z,21.83
2018-06-14T10:30:33.745Z,22.20
2018-06-14T10:31:33.747Z,22.34
2018-06-14T10:32:33.754Z,22.59
2018-06-14T10:33:33.766Z,22.69
2018-06-14T10:34:33.765Z,22.50
2018-06-14T10:35:33.770Z,22.59
2018-06-14T10:36:33.779Z,22.89
2018-06-14T10:37:33.792Z,23.15
2018-06-14T10:38:33.792Z,23.35
2018-06-14T10:39:33.817Z,23.52
2018-06-14T10:40:33.801Z,23.65
2018-06-14T10:41:33.803Z,23.77
2018-06-14T10:42:33.816Z,23.75
2018-06-14T10:43:33.863Z,23.58
2018-06-14T10:44:33.825Z,23.39
2018-06-14T10:45:33.829Z,23.22
2018-06-14T10:46:33.874Z,23.19
2018-06-14T10:47:33.844Z,23.17
2018-06-14T10:48:33.848Z,23.23
2018-06-14T10:49:33.874Z,23.29
2018-06-14T10:50:35.698Z,23.32
2018-06-14T10:51:33.868Z,23.27
2018-06-14T10:52:33.873Z,23.26
2018-06-14T10:53:33.909Z,23.35
2018-06-14T10:54:33.886Z,23.49
2018-06-14T10:55:33.896Z,23.35
2018-06-14T10:56:33.899Z,23.04
2018-06-14T10:57:33.915Z,22.80
2018-06-14T10:58:33.912Z,22.52
2018-06-14T10:59:33.938Z,22.54
2018-06-14T11:00:33.929Z,22.72
2018-06-14T11:01:33.928Z,22.83
2018-06-14T11:02:33.937Z,23.01
2018-06-14T11:03:33.945Z,23.32
2018-06-14T11:04:33.956Z,23.57
2018-06-14T11:05:33.955Z,23.65
2018-06-14T11:06:33.978Z,23.62
2018-06-14T11:07:33.967Z,23.57
2018-06-14T11:08:33.978Z,23.55
2018-06-14T11:09:33.980Z,23.55
2018-06-14T11:10:34.011Z,23.47
2018-06-14T11:11:33.994Z,23.24
2018-06-14T11:12:34.012Z,23.14
2018-06-14T11:13:34.016Z,23.17
2018-06-14T11:14:34.012Z,23.26
2018-06-14T11:15:34.059Z,23.32
2018-06-14T11:16:34.051Z,23.23
2018-06-14T11:17:34.046Z,23.12
2018-06-14T11:18:34.043Z,23.02
2018-06-14T11:19:36.734Z,23.19
2018-06-14T11:20:34.048Z,23.19
2018-06-14T11:21:34.068Z,23.40
2018-06-14T11:22:34.062Z,23.76
2018-06-14T11:23:34.092Z,23.92
2018-06-14T11:24:34.077Z,24.16
2018-06-14T11:25:34.082Z,24.14
2018-06-14T11:26:34.084Z,23.86
2018-06-14T11:27:34.095Z,23.85
2018-06-14T11:28:34.099Z,23.92
2018-06-14T11:29:34.733Z,23.57
2018-06-14T11:30:34.117Z,23.23
2018-06-14T11:31:34.120Z,23.23
2018-06-14T11:32:34.165Z,23.40
2018-06-14T11:33:34.134Z,23.58
2018-06-14T11:34:34.173Z,23.90
2018-06-14T11:35:34.151Z,23.82
2018-06-14T11:36:34.174Z,24.08
2018-06-14T11:37:34.195Z,24.32
2018-06-14T11:38:34.199Z,24.52
2018-06-14T11:39:34.235Z,24.41
2018-06-14T11:40:34.176Z,24.39
2018-06-14T11:41:34.182Z,24.37
2018-06-14T11:42:34.189Z,24.39
2018-06-14T11:43:34.197Z,24.17
2018-06-14T11:44:34.201Z,24.12
2018-06-14T11:45:34.239Z,23.68
2018-06-14T11:46:34.255Z,23.55
2018-06-14T11:47:34.349Z,23.29
2018-06-14T11:48:34.227Z,23.26
2018-06-14T11:49:34.236Z,23.17
2018-06-14T11:50:34.388Z,23.23
2018-06-14T11:51:34.247Z,23.50
2018-06-14T11:52:34.252Z,23.60
2018-06-14T11:53:35.222Z,23.79
2018-06-14T11:54:34.265Z,24.02
2018-06-14T11:55:34.272Z,24.26
2018-06-14T11:56:34.278Z,24.42
2018-06-14T11:57:34.284Z,24.53
2018-06-14T11:58:34.564Z,24.61
2018-06-14T11:59:34.304Z,24.56
2018-06-14T12:00:34.301Z,24.50
2018-06-14T12:01:34.308Z,24.54
2018-06-14T12:02:34.319Z,24.60
2018-06-14T12:03:34.325Z,24.83
2018-06-14T12:04:34.396Z,24.90
2018-06-14T12:05:34.335Z,25.05
2018-06-14T12:06:35.111Z,25.13
2018-06-14T12:07:34.353Z,25.20
2018-06-14T12:08:35.486Z,25.13
2018-06-14T12:09:34.466Z,24.57
2018-06-14T12:10:34.366Z,24.77
2018-06-14T12:11:34.380Z,24.95
2018-06-14T12:12:34.384Z,25.00
2018-06-14T12:13:34.409Z,24.92
2018-06-14T12:14:34.741Z,24.80
2018-06-14T12:15:34.570Z,24.90
2018-06-14T12:16:34.510Z,24.57
2018-06-14T12:17:34.411Z,24.29
2018-06-14T12:18:34.419Z,23.86
2018-06-14T12:19:34.425Z,23.65
2018-06-14T12:20:34.451Z,23.60
2018-06-14T12:21:34.441Z,23.58
2018-06-14T12:22:34.449Z,23.50
2018-06-14T12:23:34.454Z,23.72
2018-06-14T12:24:34.461Z,23.90
2018-06-14T12:25:34.470Z,24.02
2018-06-14T12:26:34.474Z,24.04
2018-06-14T12:27:34.540Z,23.65
2018-06-14T12:28:34.484Z,23.57
2018-06-14T12:29:34.489Z,23.72
2018-06-14T12:30:34.497Z,23.86
2018-06-14T12:31:34.506Z,24.17
2018-06-14T12:32:34.579Z,24.23
2018-06-14T12:33:34.519Z,24.41
2018-06-14T12:34:34.574Z,24.59
2018-06-14T12:35:34.592Z,24.64
2018-06-14T12:36:34.539Z,24.85
2018-06-14T12:37:34.603Z,24.94
2018-06-14T12:38:34.581Z,24.88
2018-06-14T12:39:34.562Z,24.90
2018-06-14T12:40:34.610Z,24.87
2018-06-14T12:41:34.567Z,24.83
2018-06-14T12:42:34.574Z,24.52
2018-06-14T12:43:34.584Z,24.82
2018-06-14T12:44:34.615Z,24.80
2018-06-14T12:45:34.595Z,24.83
2018-06-14T12:46:34.622Z,24.94
2018-06-14T12:47:36.286Z,24.85
2018-06-14T12:48:34.611Z,24.94
2018-06-14T12:49:36.258Z,24.52
2018-06-14T12:50:34.646Z,24.61
2018-06-14T12:51:34.632Z,24.32
2018-06-14T12:52:34.655Z,24.32